Airfield :
LOGIN :

Register | Disclaimer

   EN    FR    IT 

 










Legend :    VFR   Marginal VFR   IFR   Intensive IFR   Very Intensive IFR
Visi :
Ceiling :
>= 8 km
>= 3000ft
5 to 8 km
1000 to 3000 ft
1500m to 5 km
500 to 1000 ft
800 to 1500m
200 to 500 ft
< 800m
< 200 ft
Symbols :   Thunderstorms  Fog  Heavy snow  Heavy precipitations  Wind > 20 kt
SIGMETs :     Misc.  Thunderstorms  Icing  Turbulence  Mountain Waves  Volcanic Ashes






- Airport Elevation : 348 ft
- IATA code : STN


EGSS - London Stansted

CURRENT METAR :
  • 022120Z AUTO 04003KT 9999 NCD 14/08 Q1014

EXPIRED METARs :
  • 022050Z AUTO 05004KT 9999 NCD 15/08 Q1014
  • 022020Z AUTO 04003KT 9999 NCD 16/08 Q1015
  • 021950Z AUTO 03003KT 9999 NCD 18/08 Q1015
  • 021920Z AUTO 04004KT 9999 NCD 19/08 Q1015
  • 021850Z AUTO 02005KT 9999 NCD 21/08 Q1015

TAF TAF EGSS
Valid from the 02 at 18:00 until the 04 at 00:00 UTC


021658Z 0218/0324 VRB05KT CAVOK
BECMG 0304/0307 FEW020 BKN040
TEMPO 0304/0324 7000 RA
PROB40
TEMPO 0309/0324 BKN012
ATIS : +44 1279 669 325



MET'MAP, your aeronautical weather chart ! - Copyright ORBIFLY December 2007 - Disclaimer

ORBIFLY MET'MAP TEAM :

Programming & Development : Alexandra Zaïnal
Concept & original design : Baudouin d'Aumeries
Assistance for programming : Marc-Olivier Méhu
Technical & hardware support : Manuel Goepfert

Contact : metmap@orbifly.com




SOURCES & CREDITS :

   NOAA